createdAt,value
2018-04-01T00:02:16.106Z,7.90
2018-04-01T00:04:43.666Z,7.80
2018-04-01T00:07:12.369Z,7.80
2018-04-01T00:09:39.960Z,7.80
2018-04-01T00:12:07.523Z,7.80
2018-04-01T00:14:35.267Z,7.80
2018-04-01T00:17:02.839Z,7.80
2018-04-01T00:19:30.848Z,7.80
2018-04-01T00:21:58.446Z,7.80
2018-04-01T00:24:26.005Z,7.90
2018-04-01T00:26:53.633Z,7.80
2018-04-01T00:29:21.204Z,7.80
2018-04-01T00:31:48.770Z,7.70
2018-04-01T00:34:16.372Z,7.70
2018-04-01T00:36:43.940Z,7.70
2018-04-01T00:39:12.137Z,7.70
2018-04-01T00:41:39.722Z,7.70
2018-04-01T00:44:07.286Z,7.70
2018-04-01T00:46:34.975Z,7.80
2018-04-01T00:49:02.656Z,7.90
2018-04-01T00:51:30.209Z,7.80
2018-04-01T00:53:57.791Z,7.70
2018-04-01T00:56:25.359Z,7.70
2018-04-01T00:58:52.926Z,7.80
2018-04-01T01:01:20.669Z,7.70
2018-04-01T01:03:48.228Z,7.70
2018-04-01T01:06:15.828Z,7.70
2018-04-01T01:08:43.402Z,7.70
2018-04-01T01:11:10.974Z,7.60
2018-04-01T01:13:39.392Z,7.60
2018-04-01T01:16:07.732Z,7.60
2018-04-01T01:18:35.408Z,7.60
2018-04-01T01:21:03.279Z,7.60
2018-04-01T01:23:30.852Z,7.50
2018-04-01T01:25:58.430Z,7.50
2018-04-01T01:28:26.016Z,7.50
2018-04-01T01:30:53.576Z,7.40
2018-04-01T01:33:21.152Z,7.30
2018-04-01T01:35:48.742Z,7.40
2018-04-01T01:38:16.307Z,7.40
2018-04-01T01:40:43.866Z,7.40
2018-04-01T01:43:11.445Z,7.50
2018-04-01T01:45:39.034Z,7.40
2018-04-01T01:48:06.612Z,7.30
2018-04-01T01:50:34.194Z,7.30
2018-04-01T01:53:01.758Z,7.30
2018-04-01T01:55:29.391Z,7.20
2018-04-01T01:57:57.716Z,7.20
2018-04-01T02:00:25.268Z,7.20
2018-04-01T02:02:52.871Z,7.30
2018-04-01T02:05:20.438Z,7.30
2018-04-01T02:07:48.049Z,7.30
2018-04-01T02:10:15.626Z,7.20
2018-04-01T02:12:43.188Z,7.20
2018-04-01T02:15:10.747Z,7.20
2018-04-01T02:17:39.085Z,7.20
2018-04-01T02:20:06.684Z,7.20
2018-04-01T02:22:34.319Z,7.20
2018-04-01T02:25:02.639Z,7.20
2018-04-01T02:27:30.219Z,7.20
2018-04-01T02:29:57.768Z,7.20
2018-04-01T02:32:25.386Z,7.20
2018-04-01T02:34:53.708Z,7.20
2018-04-01T02:37:21.312Z,7.20
2018-04-01T02:39:49.644Z,7.20
2018-04-01T02:42:17.319Z,7.10
2018-04-01T02:44:44.886Z,7.10
2018-04-01T02:47:12.468Z,7.10
2018-04-01T02:49:40.044Z,7.10
2018-04-01T02:52:07.618Z,7.10
2018-04-01T02:54:35.236Z,7.00
2018-04-01T02:57:03.801Z,7.00
2018-04-01T02:59:31.371Z,7.00
2018-04-01T03:02:00.160Z,6.90
2018-04-01T03:04:27.798Z,7.00
2018-04-01T03:06:56.134Z,7.00
2018-04-01T03:09:23.817Z,7.00
2018-04-01T03:11:51.388Z,7.00
2018-04-01T03:14:18.983Z,7.00
2018-04-01T03:16:46.687Z,7.10
2018-04-01T03:19:15.033Z,7.20
2018-04-01T03:21:42.598Z,7.20
2018-04-01T03:24:10.187Z,7.20
2018-04-01T03:26:37.766Z,7.00
2018-04-01T03:29:05.353Z,7.00
2018-04-01T03:31:32.989Z,7.00
2018-04-01T03:34:00.601Z,7.00
2018-04-01T03:36:28.226Z,7.00
2018-04-01T03:38:55.801Z,7.00
2018-04-01T03:41:23.408Z,7.00
2018-04-01T03:43:51.047Z,6.90
2018-04-01T03:46:18.616Z,7.00
2018-04-01T03:48:46.198Z,7.00
2018-04-01T03:51:13.782Z,7.00
2018-04-01T03:53:41.385Z,7.00
2018-04-01T03:56:10.520Z,7.00
2018-04-01T03:58:38.116Z,7.00
2018-04-01T04:01:05.692Z,7.10
2018-04-01T04:03:33.274Z,7.10
2018-04-01T04:06:01.274Z,7.00
2018-04-01T04:08:29.460Z,7.00
2018-04-01T04:10:57.030Z,7.00
2018-04-01T04:13:24.802Z,6.90
2018-04-01T04:15:52.369Z,6.90
2018-04-01T04:18:19.950Z,6.80
2018-04-01T04:20:47.617Z,6.70
2018-04-01T04:23:15.232Z,6.80
2018-04-01T04:25:42.807Z,6.80
2018-04-01T04:28:11.137Z,6.80
2018-04-01T04:30:38.712Z,6.80
2018-04-01T04:33:06.295Z,6.90
2018-04-01T04:35:33.856Z,6.80
2018-04-01T04:38:01.446Z,6.90
2018-04-01T04:40:29.091Z,6.90
2018-04-01T04:42:56.660Z,6.80
2018-04-01T04:45:24.234Z,6.80
2018-04-01T04:47:51.822Z,6.80
2018-04-01T04:50:19.411Z,6.80
2018-04-01T04:52:46.980Z,6.80
2018-04-01T04:55:14.741Z,6.80
2018-04-01T04:57:42.320Z,6.70
2018-04-01T05:00:09.876Z,6.60
2018-04-01T05:02:37.440Z,6.50
2018-04-01T05:05:05.049Z,6.50
2018-04-01T05:07:32.626Z,6.60
2018-04-01T05:10:00.198Z,6.60
2018-04-01T05:12:28.540Z,6.50
2018-04-01T05:14:56.128Z,6.40
2018-04-01T05:17:23.717Z,6.50
2018-04-01T05:19:51.365Z,6.40
2018-04-01T05:22:18.972Z,6.50
2018-04-01T05:24:46.541Z,6.40
2018-04-01T05:27:14.113Z,6.40
2018-04-01T05:29:41.674Z,6.40
2018-04-01T05:32:09.269Z,6.40
2018-04-01T05:34:37.625Z,6.40
2018-04-01T05:37:05.194Z,6.40
2018-04-01T05:39:33.778Z,6.50
2018-04-01T05:42:01.361Z,6.50
2018-04-01T05:44:28.951Z,6.50
2018-04-01T05:46:56.532Z,6.60
2018-04-01T05:49:24.105Z,6.50
2018-04-01T05:51:51.662Z,6.40
2018-04-01T05:54:19.247Z,6.30
2018-04-01T05:56:46.799Z,6.30
2018-04-01T05:59:14.366Z,6.20
2018-04-01T06:01:41.935Z,6.20
2018-04-01T06:04:09.508Z,6.10
2018-04-01T06:06:37.063Z,6.20
2018-04-01T06:09:04.642Z,6.10
2018-04-01T06:11:32.204Z,6.10
2018-04-01T06:13:59.773Z,6.20
2018-04-01T06:16:27.324Z,6.20
2018-04-01T06:18:54.926Z,6.20
2018-04-01T06:21:22.458Z,6.20
2018-04-01T06:23:50.887Z,6.00
2018-04-01T06:26:18.448Z,5.90
2018-04-01T06:28:46.055Z,6.00
2018-04-01T06:31:13.600Z,6.20
2018-04-01T06:33:41.180Z,6.20
2018-04-01T06:36:08.744Z,6.20
2018-04-01T06:38:36.597Z,6.20
2018-04-01T06:41:04.912Z,6.40
2018-04-01T06:43:32.474Z,6.40
2018-04-01T06:46:00.072Z,6.50
2018-04-01T06:48:27.625Z,6.40
2018-04-01T06:50:55.190Z,6.40
2018-04-01T06:53:22.754Z,6.60
2018-04-01T06:55:50.334Z,6.70
2018-04-01T06:58:17.928Z,6.70
2018-04-01T07:00:45.493Z,6.80
2018-04-01T07:03:13.054Z,6.70
2018-04-01T07:05:40.654Z,6.70
2018-04-01T07:08:08.212Z,6.70
2018-04-01T07:10:35.792Z,6.80
2018-04-01T07:13:03.354Z,6.80
2018-04-01T07:15:30.924Z,6.60
2018-04-01T07:17:58.498Z,6.50
2018-04-01T07:20:26.077Z,6.40
2018-04-01T07:22:53.633Z,6.40
2018-04-01T07:25:21.242Z,6.40
2018-04-01T07:27:48.790Z,6.40
2018-04-01T07:30:16.360Z,6.20
2018-04-01T07:32:43.936Z,6.20
2018-04-01T07:35:11.516Z,6.20
2018-04-01T07:37:39.103Z,5.90
2018-04-01T07:40:06.676Z,5.90
2018-04-01T07:42:34.246Z,6.00
2018-04-01T07:45:01.827Z,6.00
2018-04-01T07:47:29.396Z,6.10
2018-04-01T07:49:57.750Z,6.10
2018-04-01T07:52:25.350Z,6.10
2018-04-01T07:54:52.927Z,6.20
2018-04-01T07:57:20.510Z,6.30
2018-04-01T07:59:48.857Z,6.30
2018-04-01T08:02:16.479Z,6.30
2018-04-01T08:04:44.877Z,6.50
2018-04-01T08:07:13.211Z,6.60
2018-04-01T08:09:40.801Z,6.60
2018-04-01T08:12:08.377Z,6.60
2018-04-01T08:14:35.945Z,6.70
2018-04-01T08:17:03.634Z,6.70
2018-04-01T08:19:31.970Z,6.60
2018-04-01T08:21:59.546Z,6.60
2018-04-01T08:24:27.273Z,6.70
2018-04-01T08:26:54.869Z,6.70
2018-04-01T08:29:22.460Z,6.90
2018-04-01T08:31:50.038Z,7.00
2018-04-01T08:34:17.605Z,7.10
2018-04-01T08:36:45.169Z,7.00
2018-04-01T08:39:13.004Z,6.80
2018-04-01T08:41:41.331Z,6.80
2018-04-01T08:44:08.943Z,6.80
2018-04-01T08:46:36.513Z,6.70
2018-04-01T08:49:04.105Z,6.80
2018-04-01T08:51:31.668Z,6.70
2018-04-01T08:53:59.242Z,6.70
2018-04-01T08:56:26.804Z,6.70
2018-04-01T08:58:54.368Z,6.70
2018-04-01T09:01:21.962Z,6.70
2018-04-01T09:03:49.574Z,6.70
2018-04-01T09:06:17.132Z,6.90
2018-04-01T09:08:44.726Z,6.90
2018-04-01T09:11:13.068Z,7.20
2018-04-01T09:13:41.060Z,7.40
2018-04-01T09:16:08.750Z,7.30
2018-04-01T09:18:36.276Z,7.20
2018-04-01T09:21:03.929Z,7.30
2018-04-01T09:23:31.500Z,7.30
2018-04-01T09:25:59.093Z,7.20
2018-04-01T09:28:26.652Z,7.20
2018-04-01T09:30:54.227Z,7.10
2018-04-01T09:33:21.800Z,6.90
2018-04-01T09:35:49.376Z,6.60
2018-04-01T09:38:16.941Z,6.50
2018-04-01T09:40:44.514Z,6.50
2018-04-01T09:43:12.144Z,6.50
2018-04-01T09:45:40.484Z,6.60
2018-04-01T09:48:08.046Z,6.60
2018-04-01T09:50:35.676Z,6.70
2018-04-01T09:53:03.298Z,6.70
2018-04-01T09:55:30.888Z,6.70
2018-04-01T09:57:58.452Z,6.70
2018-04-01T10:00:26.023Z,6.60
2018-04-01T10:02:54.081Z,6.30
2018-04-01T10:05:22.393Z,6.00
2018-04-01T10:07:50.444Z,6.00
2018-04-01T10:10:18.566Z,6.10
2018-04-01T10:12:46.640Z,6.30
2018-04-01T10:15:14.706Z,6.60
2018-04-01T10:17:43.175Z,6.80
2018-04-01T10:20:12.899Z,7.00
2018-04-01T10:22:40.899Z,7.00
2018-04-01T10:25:08.974Z,7.20
2018-04-01T10:27:37.110Z,7.40
2018-04-01T10:30:05.493Z,7.60
2018-04-01T10:32:33.599Z,7.60
2018-04-01T10:35:01.640Z,7.60
2018-04-01T10:37:29.722Z,7.60
2018-04-01T10:39:57.838Z,7.40
2018-04-01T10:42:25.978Z,7.50
2018-04-01T10:44:54.042Z,7.50
2018-04-01T10:47:22.140Z,7.60
2018-04-01T10:49:50.214Z,7.70
2018-04-01T10:52:18.291Z,7.80
2018-04-01T10:54:45.856Z,8.20
2018-04-01T10:57:13.427Z,8.50
2018-04-01T10:59:40.998Z,8.60
2018-04-01T11:02:09.330Z,9.30
2018-04-01T11:04:36.896Z,9.20
2018-04-01T11:07:04.467Z,9.90
2018-04-01T11:09:32.029Z,9.80
2018-04-01T11:11:59.599Z,9.30
2018-04-01T11:14:27.148Z,9.20
2018-04-01T11:16:54.714Z,9.30
2018-04-01T11:19:22.288Z,9.20
2018-04-01T11:21:49.878Z,8.90
2018-04-01T11:24:17.413Z,8.60
2018-04-01T11:26:45.744Z,8.30
2018-04-01T11:29:14.079Z,8.10
2018-04-01T11:31:41.654Z,8.10
2018-04-01T11:34:09.217Z,8.10
2018-04-01T11:36:36.769Z,7.90
2018-04-01T11:39:04.356Z,7.80
2018-04-01T11:41:31.909Z,7.70
2018-04-01T11:43:59.480Z,7.60
2018-04-01T11:46:27.061Z,7.20
2018-04-01T11:48:54.630Z,7.10
2018-04-01T11:51:22.188Z,6.80
2018-04-01T11:53:49.776Z,6.70
2018-04-01T11:56:17.336Z,6.80
2018-04-01T11:58:44.930Z,6.70
2018-04-01T12:01:12.492Z,6.80
2018-04-01T12:03:40.077Z,6.80
2018-04-01T12:06:07.634Z,7.00
2018-04-01T12:08:35.213Z,7.10
2018-04-01T12:11:02.807Z,7.30
2018-04-01T12:13:30.373Z,7.30
2018-04-01T12:15:57.925Z,7.50
2018-04-01T12:18:25.497Z,7.60
2018-04-01T12:20:53.063Z,8.00
2018-04-01T12:23:20.621Z,8.10
2018-04-01T12:25:48.182Z,8.30
2018-04-01T12:28:15.744Z,8.70
2018-04-01T12:30:43.307Z,8.60
2018-04-01T12:33:10.874Z,8.20
2018-04-01T12:35:38.446Z,8.20
2018-04-01T12:38:06.012Z,8.20
2018-04-01T12:40:34.337Z,7.70
2018-04-01T12:43:01.916Z,7.70
2018-04-01T12:45:29.472Z,7.60
2018-04-01T12:47:57.053Z,7.60
2018-04-01T12:50:24.612Z,7.60
2018-04-01T12:52:52.197Z,7.60
2018-04-01T12:55:19.757Z,7.50
2018-04-01T12:57:47.325Z,7.50
2018-04-01T13:00:14.898Z,7.60
2018-04-01T13:02:42.456Z,7.40
2018-04-01T13:05:10.025Z,7.30
2018-04-01T13:07:37.631Z,7.30
2018-04-01T13:10:05.193Z,7.50
2018-04-01T13:12:32.756Z,8.00
2018-04-01T13:15:00.322Z,8.20
2018-04-01T13:17:27.917Z,8.60
2018-04-01T13:19:55.478Z,9.10
2018-04-01T13:22:23.028Z,9.10
2018-04-01T13:24:50.596Z,9.40
2018-04-01T13:27:18.166Z,9.60
2018-04-01T13:29:45.737Z,9.70
2018-04-01T13:32:13.307Z,9.40
2018-04-01T13:34:40.876Z,9.00
2018-04-01T13:37:08.454Z,8.50
2018-04-01T13:39:36.020Z,8.50
2018-04-01T13:42:03.584Z,8.60
2018-04-01T13:44:31.911Z,8.60
2018-04-01T13:46:59.472Z,8.60
2018-04-01T13:49:27.056Z,8.60
2018-04-01T13:51:54.608Z,8.50
2018-04-01T13:54:22.177Z,8.40
2018-04-01T13:56:49.738Z,8.40
2018-04-01T13:59:18.093Z,8.40
2018-04-01T14:01:45.649Z,8.30
2018-04-01T14:04:13.222Z,8.20
2018-04-01T14:06:40.782Z,8.10
2018-04-01T14:09:08.367Z,8.20
2018-04-01T14:11:35.926Z,8.60
2018-04-01T14:14:03.488Z,9.00
2018-04-01T14:16:31.056Z,9.10
2018-04-01T14:18:58.640Z,9.10
2018-04-01T14:21:26.214Z,9.00
2018-04-01T14:23:53.770Z,8.90
2018-04-01T14:26:21.330Z,8.80
2018-04-01T14:28:48.893Z,8.70
2018-04-01T14:31:16.468Z,8.50
2018-04-01T14:33:44.042Z,8.50
2018-04-01T14:36:11.612Z,8.60
2018-04-01T14:38:39.190Z,8.60
2018-04-01T14:41:06.846Z,8.70
2018-04-01T14:43:34.681Z,8.70
2018-04-01T14:46:02.244Z,8.70
2018-04-01T14:48:29.796Z,8.80
2018-04-01T14:50:57.370Z,8.50
2018-04-01T14:53:24.966Z,8.50
2018-04-01T14:55:52.532Z,8.30
2018-04-01T14:58:20.085Z,8.20
2018-04-01T15:00:47.662Z,8.00
2018-04-01T15:03:15.987Z,7.80
2018-04-01T15:05:43.567Z,7.80
2018-04-01T15:08:11.134Z,7.80
2018-04-01T15:10:38.697Z,7.60
2018-04-01T15:13:06.259Z,7.50
2018-04-01T15:15:35.484Z,7.50
2018-04-01T15:18:03.054Z,7.50
2018-04-01T15:20:30.632Z,7.50
2018-04-01T15:22:58.334Z,7.60
2018-04-01T15:25:25.885Z,7.70
2018-04-01T15:27:53.495Z,7.90
2018-04-01T15:30:21.073Z,7.70
2018-04-01T15:32:48.650Z,7.60
2018-04-01T15:35:16.266Z,7.60
2018-04-01T15:37:43.844Z,7.60
2018-04-01T15:40:11.415Z,7.60
2018-04-01T15:42:38.988Z,7.50
2018-04-01T15:45:06.568Z,7.50
2018-04-01T15:47:34.110Z,7.50
2018-04-01T15:50:01.661Z,7.70
2018-04-01T15:52:29.229Z,7.70
2018-04-01T15:54:56.853Z,7.70
2018-04-01T15:57:25.207Z,7.60
2018-04-01T15:59:52.753Z,7.60
2018-04-01T16:02:20.314Z,7.60
2018-04-01T16:04:47.882Z,7.60
2018-04-01T16:07:15.462Z,7.60
2018-04-01T16:09:43.024Z,7.50
2018-04-01T16:12:10.613Z,7.50
2018-04-01T16:14:38.176Z,7.50
2018-04-01T16:17:05.764Z,7.50
2018-04-01T16:19:33.338Z,7.60
2018-04-01T16:22:00.909Z,7.60
2018-04-01T16:24:28.464Z,7.60
2018-04-01T16:26:56.031Z,7.50
2018-04-01T16:29:23.588Z,7.50
2018-04-01T16:31:51.177Z,7.50
2018-04-01T16:34:19.667Z,7.50
2018-04-01T16:36:47.255Z,7.40
2018-04-01T16:39:14.823Z,7.30
2018-04-01T16:41:42.390Z,7.30
2018-04-01T16:44:09.967Z,7.20
2018-04-01T16:46:37.544Z,7.20
2018-04-01T16:49:05.140Z,7.10
2018-04-01T16:51:32.720Z,7.00
2018-04-01T16:54:00.287Z,7.10
2018-04-01T16:56:27.870Z,7.10
2018-04-01T16:58:55.435Z,7.00
2018-04-01T17:01:23.046Z,7.10
2018-04-01T17:03:50.617Z,7.10
2018-04-01T17:06:18.247Z,7.00
2018-04-01T17:08:45.836Z,7.00
2018-04-01T17:11:14.175Z,7.10
2018-04-01T17:13:41.746Z,7.10
2018-04-01T17:16:09.324Z,7.20
2018-04-01T17:18:36.896Z,7.10
2018-04-01T17:21:04.470Z,7.10
2018-04-01T17:23:32.036Z,7.20
2018-04-01T17:26:00.364Z,7.00
2018-04-01T17:28:27.973Z,7.00
2018-04-01T17:30:55.536Z,7.10
2018-04-01T17:33:23.863Z,7.00
2018-04-01T17:35:51.428Z,7.00
2018-04-01T17:38:19.017Z,7.00
2018-04-01T17:40:46.590Z,7.00
2018-04-01T17:43:14.152Z,7.10
2018-04-01T17:45:41.833Z,7.10
2018-04-01T17:48:09.392Z,7.00
2018-04-01T17:50:36.960Z,7.00
2018-04-01T17:53:04.520Z,6.90
2018-04-01T17:55:32.077Z,6.90
2018-04-01T17:57:59.662Z,6.80
2018-04-01T18:00:27.225Z,6.80
2018-04-01T18:02:54.818Z,6.80
2018-04-01T18:05:22.364Z,6.70
2018-04-01T18:07:49.924Z,6.70
2018-04-01T18:10:18.298Z,6.50
2018-04-01T18:12:45.865Z,6.50
2018-04-01T18:15:13.446Z,6.60
2018-04-01T18:17:41.065Z,6.50
2018-04-01T18:20:08.597Z,6.60
2018-04-01T18:22:36.960Z,6.60
2018-04-01T18:25:04.524Z,6.60
2018-04-01T18:27:32.094Z,6.60
2018-04-01T18:29:59.673Z,6.60
2018-04-01T18:32:28.219Z,6.60
2018-04-01T18:34:55.786Z,6.60
2018-04-01T18:37:24.110Z,6.60
2018-04-01T18:39:51.685Z,6.60
2018-04-01T18:42:19.280Z,6.60
2018-04-01T18:44:46.809Z,6.50
2018-04-01T18:47:14.389Z,6.50
2018-04-01T18:49:43.755Z,6.40
2018-04-01T18:52:11.480Z,6.40
2018-04-01T18:54:39.052Z,6.40
2018-04-01T18:57:06.618Z,6.50
2018-04-01T18:59:34.185Z,6.50
2018-04-01T19:02:01.768Z,6.60
2018-04-01T19:04:29.346Z,6.70
2018-04-01T19:06:56.900Z,6.70
2018-04-01T19:09:24.470Z,6.60
2018-04-01T19:11:52.061Z,6.60
2018-04-01T19:14:19.632Z,6.50
2018-04-01T19:16:57.650Z,6.50
2018-04-01T19:19:25.732Z,6.50
2018-04-01T19:21:53.798Z,6.50
2018-04-01T19:24:21.860Z,6.40
2018-04-01T19:26:50.076Z,6.40
2018-04-01T19:29:18.157Z,6.40
2018-04-01T19:31:46.256Z,6.40
2018-04-01T19:34:14.326Z,6.50
2018-04-01T19:36:42.400Z,6.50
2018-04-01T19:39:10.453Z,6.50
2018-04-01T19:41:39.365Z,6.40
2018-04-01T19:44:07.358Z,6.40
2018-04-01T19:46:37.308Z,6.30
2018-04-01T19:49:06.099Z,6.30
2018-04-01T19:51:34.941Z,6.10
2018-04-01T19:54:02.983Z,6.10
2018-04-01T19:56:31.059Z,6.10
2018-04-01T19:58:59.108Z,6.10
2018-04-01T20:01:27.942Z,6.40
2018-04-01T20:03:55.991Z,6.30
2018-04-01T20:06:24.074Z,6.40
2018-04-01T20:08:52.122Z,6.40
2018-04-01T20:11:20.198Z,6.40
2018-04-01T20:13:48.249Z,6.40
2018-04-01T20:16:16.305Z,6.40
2018-04-01T20:18:44.494Z,6.50
2018-04-01T20:21:12.564Z,6.40
2018-04-01T20:23:40.613Z,6.40
2018-04-01T20:26:09.419Z,6.40
2018-04-01T20:28:37.490Z,6.40
2018-04-01T20:31:05.557Z,6.50
2018-04-01T20:33:33.621Z,6.40
2018-04-01T20:36:02.437Z,6.40
2018-04-01T20:38:30.483Z,6.40
2018-04-01T20:40:58.557Z,6.50
2018-04-01T20:43:26.632Z,6.40
2018-04-01T20:45:54.672Z,6.50
2018-04-01T20:48:22.872Z,6.40
2018-04-01T20:50:50.912Z,6.40
2018-04-01T20:53:18.982Z,6.40
2018-04-01T20:55:47.081Z,6.40
2018-04-01T20:58:15.154Z,6.30
2018-04-01T21:00:43.204Z,6.40
2018-04-01T21:03:11.276Z,6.50
2018-04-01T21:05:39.345Z,6.50
2018-04-01T21:08:07.425Z,6.50
2018-04-01T21:10:35.502Z,6.50
2018-04-01T21:13:04.346Z,6.50
2018-04-01T21:15:32.389Z,6.50
2018-04-01T21:18:00.449Z,6.50
2018-04-01T21:20:28.510Z,6.50
2018-04-01T21:22:56.589Z,6.50
2018-04-01T21:25:24.651Z,6.40
2018-04-01T21:27:52.745Z,6.40
2018-04-01T21:30:20.805Z,6.50
2018-04-01T21:32:48.903Z,6.40
2018-04-01T21:35:17.014Z,6.40
2018-04-01T21:37:45.078Z,6.40
2018-04-01T21:40:13.124Z,6.30
2018-04-01T21:42:41.201Z,6.40
2018-04-01T21:45:10.020Z,6.30
2018-04-01T21:47:38.157Z,6.30
2018-04-01T21:50:06.205Z,6.20
2018-04-01T21:52:34.290Z,6.20
2018-04-01T21:55:02.343Z,6.20
2018-04-01T21:57:30.469Z,6.20
2018-04-01T21:59:59.534Z,6.20
2018-04-01T22:02:29.589Z,6.30
2018-04-01T22:04:57.686Z,6.30
2018-04-01T22:07:26.511Z,6.40
2018-04-01T22:09:55.829Z,6.50
2018-04-01T22:12:25.596Z,6.50
2018-04-01T22:14:54.023Z,6.50
2018-04-01T22:17:22.094Z,6.50
2018-04-01T22:19:50.156Z,6.40
2018-04-01T22:22:18.219Z,6.40
2018-04-01T22:24:47.054Z,6.50
2018-04-01T22:27:15.112Z,6.50
2018-04-01T22:29:43.951Z,6.60
2018-04-01T22:32:11.999Z,6.60
2018-04-01T22:34:40.820Z,6.40
2018-04-01T22:37:08.888Z,6.40
2018-04-01T22:39:36.947Z,6.30
2018-04-01T22:42:05.769Z,6.40
2018-04-01T22:44:34.583Z,6.50
2018-04-01T22:47:02.658Z,6.50
2018-04-01T22:49:30.736Z,6.50
2018-04-01T22:51:59.556Z,6.50
2018-04-01T22:54:27.628Z,6.50
2018-04-01T22:56:55.690Z,6.50
2018-04-01T22:59:24.528Z,6.50
2018-04-01T23:01:52.687Z,6.50
2018-04-01T23:04:21.543Z,6.30
2018-04-01T23:06:49.608Z,6.30
2018-04-01T23:09:18.416Z,6.20
2018-04-01T23:11:46.486Z,6.20
2018-04-01T23:14:15.320Z,6.20
2018-04-01T23:16:43.389Z,6.20
2018-04-01T23:19:12.492Z,6.30
2018-04-01T23:21:40.630Z,6.30
2018-04-01T23:24:08.652Z,6.30
2018-04-01T23:26:36.727Z,6.40
2018-04-01T23:29:04.809Z,6.40
2018-04-01T23:31:32.880Z,6.50
2018-04-01T23:34:00.944Z,6.40
2018-04-01T23:36:29.780Z,6.40
2018-04-01T23:38:57.847Z,6.40
2018-04-01T23:41:25.918Z,6.40
2018-04-01T23:43:54.732Z,6.20
2018-04-01T23:46:22.804Z,6.20
2018-04-01T23:48:51.607Z,6.20
2018-04-01T23:51:19.674Z,6.20
2018-04-01T23:53:48.529Z,6.10
2018-04-01T23:56:16.585Z,6.10
2018-04-01T23:58:44.628Z,6.10
